Jemez Springs, Valles Caldera, New Mexico Weather observations

Data are for 10 minute period ending at time listed.
 Day   Time   Solar   Ave.   Ave.  Ave.  Vector  Max.   Baro.   Total    
  of    of     Rad.   Air    Rel.  Wind   Wind   Wind  Press.  Precip.   
Year   Day            Temp.  Hum.  Speed  Dir.   Gust                    
2015   (MST)  Kw/m2    F      %     mph   deg.    mph    mb.     in.     
-------------------------------------------------------------------------
 247    0:00   0.00   59.0    55    6.3     7    10.2   809.8    0.00 
 247    0:10   0.00   59.1    54    6.8     8    12.5   809.9    0.00 
 247    0:20   0.00   59.6    53    6.0     7    10.8   809.9    0.00 
 247    0:30   0.00   59.2    55    4.5    16     9.0   810.1    0.00 
 247    0:40   0.00   58.9    55    4.9   357     8.4   810.1    0.00 
 247    0:50   0.00   58.9    56    5.2     4     9.0   810.1    0.00 
 247    1:00   0.00   58.9    55    5.6     0    10.8   810.0    0.00 
 247    1:10   0.00   58.8    56    5.5     5    10.2   809.8    0.00 
 247    1:20   0.00   58.4    57    5.5     1     9.0   809.7    0.00 
 247    1:30   0.00   58.8    56    7.7     0    13.1   809.6    0.00 
 247    1:40   0.00   58.8    56    5.7    16    13.1   809.5    0.00 
 247    1:50   0.00   58.7    57    7.4     5    13.7   809.5    0.00 
 247    2:00   0.00   58.6    57    6.1     8    11.9   809.4    0.00 
 247    2:10   0.00   58.4    58    6.2     6    13.7   809.4    0.00 
 247    2:20   0.00   58.4    57    6.4     5    11.9   809.3    0.00 
 247    2:30   100.00  99999.0   99999  99999.0   99999   99999.0   99999.0   99999.00 
 247    2:40   100.00  99999.0   99999  99999.0   99999   99999.0   99999.0   99999.00 
 247    2:50   100.00  99999.0   99999  99999.0   99999   99999.0   99999.0   99999.00 
 247    3:00   100.00  99999.0   99999  99999.0   99999   99999.0   99999.0   99999.00 
 247    3:10   100.00  99999.0   99999  99999.0   99999   99999.0   99999.0   99999.00 
 247    3:20   100.00  99999.0   99999  99999.0   99999   99999.0   99999.0   99999.00 
 247    3:30   0.00   59.5    55    6.2   355    10.2   809.3    0.00 
 247    3:40   0.00   59.8    54    6.6     0    13.1   809.2    0.00 
 247    3:50   0.00   59.8    54    5.6   359    11.3   809.2    0.00 
 247    4:00   0.00   59.9    54    5.5     2     9.0   809.1    0.00 
 247    4:10   0.00   60.3    53    5.6   354     9.3   809.1    0.00 
 247    4:20   0.00   60.7    53    5.4   360    11.3   809.1    0.00 
 247    4:30   0.00   60.7    52    6.1     5     9.6   809.1    0.00 
 247    4:40   0.00   60.6    53    4.1   347     7.8   809.2    0.00 
 247    4:50   0.00   60.7    53    5.0   348    10.2   809.2    0.00 
 247    5:00   0.00   60.8    53    5.2   354     9.6   809.2    0.00 
 247    5:10   0.00   60.8    53    5.1   350     9.6   809.3    0.00 
 247    5:20   0.00   60.9    53    4.0   337     6.6   809.4    0.00 
 247    5:30   0.00   60.9    53    4.2   340     8.4   809.5    0.00 
 247    5:40   0.00   61.2    52    3.8   332     6.0   809.7    0.00 
 247    5:50   0.00   61.0    53    3.4    14     5.4   809.8    0.00 
 247    6:00   0.01   60.5    54    4.1     8     6.0   809.8    0.00 
 247    6:10   0.01   60.0    56    4.0    17     6.0   810.0    0.00 
 247    6:20   0.01   60.0    56    3.7     4     6.0   810.0    0.00 
 247    6:30   0.02   60.2    56    2.4   342     4.8   810.1    0.00 
 247    6:40   0.03   60.4    56    4.1   357     7.8   810.2    0.00 
 247    6:50   0.04   60.7    56    4.0     2     7.2   810.3    0.00 
 247    7:00   0.04   60.8    56    4.1   353     8.4   810.2    0.00 
 247    7:10   0.05   61.4    54    4.8   343     9.6   810.2    0.00 
 247    7:20   0.07   61.6    54    4.8   353     8.4   810.3    0.00 
 247    7:30   0.05   61.7    55    4.2    14     7.2   810.3    0.00 
 247    7:40   0.05   61.7    56    4.1     1     9.0   810.4    0.00 
 247    7:50   0.09   61.9    56    5.5     9    10.2   810.4    0.00 
 247    8:00   0.11   62.5    56    4.7   358     8.4   810.4    0.00 
 247    8:10   0.12   63.4    54    4.4   358     9.0   810.4    0.00 
 247    8:20   0.12   64.0    54    5.2     8     8.4   810.3    0.00 
 247    8:30   0.15   64.2    54    4.8     6     8.4   810.4    0.00 
 247    8:40   0.15   64.8    53    5.0    12     8.4   810.5    0.00 
 247    8:50   0.10   64.8    54    3.6    20     7.2   810.6    0.00 
 247    9:00   0.11   65.0    55    2.9   356     4.8   810.6    0.00 
 247    9:10   0.11   65.4    54    2.5   359     4.2   810.7    0.00 
 247    9:20   0.10   65.8    54    1.6    26     4.2   810.7    0.00 
 247    9:30   0.18   66.1    54    2.4   357     4.2   810.7    0.00 
 247    9:40   0.17   67.3    52    2.3   346     4.2   810.7    0.00 
 247    9:50   0.23   67.7    52    3.0    36     4.2   810.6    0.00 
 247   10:00   0.34   68.6    51    2.2    13     3.6   810.5    0.00 
 247   10:10   0.34   69.6    47    1.6    33     3.6   810.5    0.00 
 247   10:20   0.37   70.8    43    2.4   131     4.8   810.5    0.00 
 247   10:30   0.38   71.1    40    4.6   162     8.4   810.5    0.00 
 247   10:40   0.38   71.5    39    5.4   175     9.0   810.4    0.00 
 247   10:50   0.32   72.0    38    3.9   182     7.8   810.4    0.00 
 247   11:00   0.23   72.0    38    5.6   196    11.3   810.4    0.00 
 247   11:10   0.20   71.1    38    5.4   190    10.2   810.5    0.00 
 247   11:20   0.25   71.2    38    5.4   179    10.2   810.4    0.00 
 247   11:30   0.28   71.4    38    5.7   199    10.2   810.3    0.00 
 247   11:40   0.25   71.7    39    5.1   191     9.0   810.3    0.00 
 247   11:50   0.29   71.6    39    5.8   191    10.2   810.3    0.00 
 247   12:00   0.28   71.3    40    6.9   180    13.7   810.3    0.00 
 247   12:10   0.22   70.6    42    6.3   187    12.5   810.3    0.00 
 247   12:20   0.19   70.7    43    1.8   193     4.8   810.2    0.00 
 247   12:30   0.24   71.1    43    2.8   204     5.7   810.2    0.00 
 247   12:40   0.25   71.3    41    3.1   162     6.6   810.1    0.00 
 247   12:50   0.40   72.1    40    3.4   160     7.2   810.1    0.00 
 247   13:00   0.38   73.1    38    3.5   182     7.8   810.1    0.00 
 247   13:10   0.26   72.8    38    3.5   174     6.6   810.1    0.00 
 247   13:20   0.16   72.4    40    4.0   178     7.2   810.1    0.00 
 247   13:30   0.20   71.9    40    4.9   178     9.0   810.1    0.00 
 247   13:40   0.25   72.2    40    5.9   187    10.8   810.0    0.00 
 247   13:50   0.12   71.7    41    5.9   184    12.5   810.0    0.00 
 247   14:00   0.08   69.4    50    8.4   182    17.3   810.2    0.00 
 247   14:10   0.10   66.4    61    7.7   169    14.3   810.4    0.01 
 247   14:20   0.08   65.1    67    6.2   150    11.3   810.4    0.00 
 247   14:30   0.08   64.3    70    5.4   151     9.6   810.6    0.00 
 247   14:40   0.04   62.6    75    8.8   177    16.7   811.0    0.01 
 247   14:50   0.05   61.0    82    4.4   176    12.2   811.1    0.01 
 247   15:00   0.06   60.7    86    2.7   205     5.4   811.2    0.02 
 247   15:10   0.05   60.6    87    1.1   166     3.6   811.1    0.01 
 247   15:20   0.13   60.9    88    0.0     0     0.0   811.1    0.01 
 247   15:30   0.12   61.3    89    0.3    81     2.4   811.1    0.00 
 247   15:40   0.11   61.4    89    1.3    33     4.2   811.0    0.01 
 247   15:50   0.14   61.1    89    2.6    25     4.8   810.8    0.01 
 247   16:00   0.12   60.8    89    3.6    15     6.0   810.8    0.00 
 247   16:10   0.09   60.9    90    2.5     3     4.8   810.8    0.00 
 247   16:20   0.07   61.1    90    1.5    25     4.2   810.7    0.00 
 247   16:30   0.04   61.1    90    1.2    16     3.0   810.7    0.00 
 247   16:40   0.02   60.9    90    1.6   355     3.6   810.7    0.00 
 247   16:50   0.02   60.7    91    1.0   352     3.0   810.5    0.00 
 247   17:00   0.05   60.7    92    0.8    13     2.4   810.5    0.00 
 247   17:10   0.09   61.2    92    1.5   163     3.6   810.6    0.00 
 247   17:20   0.11   61.2    91    3.3   191     4.8   810.7    0.00 
 247   17:30   0.05   61.4    90    2.3   290     5.4   810.6    0.00 
 247   17:40   0.03   61.2    91    3.8   149     6.0   810.6    0.00 
 247   17:50   0.02   61.0    91    1.8    91     4.2   810.6    0.01 
 247   18:00   0.01   61.0    91    2.2   337     3.0   810.7    0.00 
 247   18:10   0.01   60.9    92    2.5     6     3.6   810.6    0.00 
 247   18:20   0.00   60.6    93    2.0    26     3.0   810.6    0.00 
 247   18:30   0.00   60.5    93    0.1   329     1.2   810.6    0.01 
 247   18:40   0.00   60.3    93    2.0    16     3.0   810.7    0.00 
 247   18:50   0.00   59.8    93    0.6    27     1.8   810.7    0.01 
 247   19:00   0.00   59.5    93    1.4    22     3.0   810.7    0.00 
 247   19:10   0.00   59.5    94    1.4   358     3.0   810.8    0.01 
 247   19:20   0.00   59.6    94    0.6    27     1.8   810.9    0.00 
 247   19:30   0.00   59.5    94    0.7    30     3.0   811.0    0.01 
 247   19:40   0.00   59.1    94    2.5     1     3.6   811.1    0.00 
 247   19:50   0.00   58.8    94    3.0   359     5.1   811.2    0.00 
 247   20:00   0.00   58.7    94    2.6   358     4.8   811.3    0.01 
 247   20:10   0.00   58.7    94    2.4    15     3.6   811.4    0.00 
 247   20:20   0.00   58.6    94    2.9    15     4.2   811.6    0.00 
 247   20:30   0.00   58.4    94    2.6    28     6.0   811.7    0.00 
 247   20:40   0.00   58.5    94    1.7   351     3.6   811.7    0.00 
 247   20:50   0.00   58.6    95    0.6    45     3.0   811.8    0.00 
 247   21:00   0.00   58.5    94    2.9    11     5.4   811.9    0.00 
 247   21:10   0.00   58.4    95    3.1    12     6.0   811.9    0.00 
 247   21:20   0.00   58.3    95    3.3     9     6.0   811.8    0.00 

Return to Jemez Springs, Valles Caldera graphs page.


Western Regional Climate Center,wrcc@dri.edu